sensor_id;sensor_type;location;lat;lon;timestamp;pressure;altitude;pressure_sealevel;temperature;humidity
63439;BME280;49567;48.958;8.294;2023-07-20T00:01:12;100216.22;;;23.65;42.25
63439;BME280;49567;48.958;8.294;2023-07-20T00:03:37;100213.31;;;23.61;42.29
63439;BME280;49567;48.958;8.294;2023-07-20T00:06:03;100216.91;;;23.62;42.60
63439;BME280;49567;48.958;8.294;2023-07-20T00:08:29;100216.09;;;23.61;42.54
63439;BME280;49567;48.958;8.294;2023-07-20T00:10:54;100225.88;;;23.59;42.62
63439;BME280;49567;48.958;8.294;2023-07-20T00:13:19;100224.38;;;23.61;43.00
63439;BME280;49567;48.958;8.294;2023-07-20T00:15:46;100221.63;;;23.61;42.92
63439;BME280;49567;48.958;8.294;2023-07-20T00:18:11;100215.22;;;23.49;42.69
63439;BME280;49567;48.958;8.294;2023-07-20T00:20:36;100225.22;;;23.41;43.16
63439;BME280;49567;48.958;8.294;2023-07-20T00:23:02;100225.81;;;23.38;43.20
63439;BME280;49567;48.958;8.294;2023-07-20T00:25:27;100224.56;;;23.36;43.27
63439;BME280;49567;48.958;8.294;2023-07-20T00:27:52;100225.28;;;23.24;43.38
63439;BME280;49567;48.958;8.294;2023-07-20T00:30:18;100219.34;;;23.13;43.52
63439;BME280;49567;48.958;8.294;2023-07-20T00:32:44;100234.94;;;23.18;43.82
63439;BME280;49567;48.958;8.294;2023-07-20T00:35:09;100220.91;;;23.23;43.73
63439;BME280;49567;48.958;8.294;2023-07-20T00:37:36;100222.91;;;23.14;44.08
63439;BME280;49567;48.958;8.294;2023-07-20T00:40:02;100219.84;;;23.07;43.96
63439;BME280;49567;48.958;8.294;2023-07-20T00:42:30;100217.94;;;22.99;43.90
63439;BME280;49567;48.958;8.294;2023-07-20T00:44:56;100215.53;;;22.97;43.90
63439;BME280;49567;48.958;8.294;2023-07-20T00:47:21;100222.84;;;22.93;43.89
63439;BME280;49567;48.958;8.294;2023-07-20T00:49:46;100216.66;;;22.96;44.28
63439;BME280;49567;48.958;8.294;2023-07-20T00:52:13;100216.47;;;23.01;44.57
63439;BME280;49567;48.958;8.294;2023-07-20T00:54:40;100217.91;;;23.07;44.47
63439;BME280;49567;48.958;8.294;2023-07-20T00:57:07;100217.09;;;23.07;44.42
63439;BME280;49567;48.958;8.294;2023-07-20T00:59:34;100224.91;;;23.05;44.47
63439;BME280;49567;48.958;8.294;2023-07-20T01:01:59;100218.56;;;23.04;44.62
63439;BME280;49567;48.958;8.294;2023-07-20T01:04:25;100224.41;;;23.03;44.62
63439;BME280;49567;48.958;8.294;2023-07-20T01:07:16;100219.56;;;23.00;44.78
63439;BME280;49567;48.958;8.294;2023-07-20T01:09:47;100224.94;;;22.96;44.86
63439;BME280;49567;48.958;8.294;2023-07-20T01:12:22;100225.63;;;22.93;44.92
63439;BME280;49567;48.958;8.294;2023-07-20T01:14:51;100227.75;;;22.88;45.07
63439;BME280;49567;48.958;8.294;2023-07-20T01:17:16;100224.03;;;22.84;45.50
63439;BME280;49567;48.958;8.294;2023-07-20T01:19:42;100215.75;;;22.84;45.50
63439;BME280;49567;48.958;8.294;2023-07-20T01:22:16;100219.03;;;22.77;45.97
63439;BME280;49567;48.958;8.294;2023-07-20T01:32:57;100216.84;;;22.45;46.85
63439;BME280;49567;48.958;8.294;2023-07-20T01:35:27;100219.09;;;22.43;47.01
63439;BME280;49567;48.958;8.294;2023-07-20T01:37:53;100217.00;;;22.40;47.22
63439;BME280;49567;48.958;8.294;2023-07-20T01:40:19;100216.84;;;22.36;47.54
63439;BME280;49567;48.958;8.294;2023-07-20T01:42:46;100217.34;;;22.30;47.63
63439;BME280;49567;48.958;8.294;2023-07-20T01:45:11;100213.81;;;22.20;48.01
63439;BME280;49567;48.958;8.294;2023-07-20T01:47:37;100218.34;;;22.16;48.18
63439;BME280;49567;48.958;8.294;2023-07-20T01:50:02;100214.97;;;22.11;48.05
63439;BME280;49567;48.958;8.294;2023-07-20T01:52:27;100214.00;;;22.07;48.12
63439;BME280;49567;48.958;8.294;2023-07-20T01:54:53;100207.81;;;22.18;48.07
63439;BME280;49567;48.958;8.294;2023-07-20T01:57:18;100207.16;;;22.13;47.97
63439;BME280;49567;48.958;8.294;2023-07-20T01:59:43;100219.19;;;22.08;48.22
63439;BME280;49567;48.958;8.294;2023-07-20T02:02:08;100211.06;;;22.03;48.29
63439;BME280;49567;48.958;8.294;2023-07-20T02:04:34;100213.66;;;22.00;48.44
63439;BME280;49567;48.958;8.294;2023-07-20T02:07:02;100208.81;;;21.97;48.51
63439;BME280;49567;48.958;8.294;2023-07-20T02:09:27;100205.25;;;21.96;48.54
63439;BME280;49567;48.958;8.294;2023-07-20T02:11:52;100209.81;;;21.92;48.78
63439;BME280;49567;48.958;8.294;2023-07-20T02:14:17;100206.84;;;21.89;48.74
63439;BME280;49567;48.958;8.294;2023-07-20T02:16:43;100205.22;;;21.88;48.86
63439;BME280;49567;48.958;8.294;2023-07-20T02:19:08;100208.53;;;21.90;48.89
63439;BME280;49567;48.958;8.294;2023-07-20T02:21:33;100215.63;;;21.91;48.91
63439;BME280;49567;48.958;8.294;2023-07-20T02:23:59;100210.47;;;21.89;49.00
63439;BME280;49567;48.958;8.294;2023-07-20T02:26:25;100209.81;;;21.92;49.07
63439;BME280;49567;48.958;8.294;2023-07-20T02:28:50;100213.50;;;21.88;49.34
63439;BME280;49567;48.958;8.294;2023-07-20T02:31:16;100207.03;;;21.75;49.65
63439;BME280;49567;48.958;8.294;2023-07-20T02:33:41;100204.44;;;21.79;49.87
63439;BME280;49567;48.958;8.294;2023-07-20T02:36:06;100207.19;;;21.70;49.94
63439;BME280;49567;48.958;8.294;2023-07-20T02:38:31;100203.94;;;21.68;50.08
63439;BME280;49567;48.958;8.294;2023-07-20T02:40:57;100209.97;;;21.70;49.86
63439;BME280;49567;48.958;8.294;2023-07-20T02:43:22;100212.06;;;21.73;49.54
63439;BME280;49567;48.958;8.294;2023-07-20T02:45:48;100205.41;;;21.65;49.89
63439;BME280;49567;48.958;8.294;2023-07-20T02:48:13;100208.16;;;21.65;49.58
63439;BME280;49567;48.958;8.294;2023-07-20T02:50:38;100211.75;;;21.66;49.72
63439;BME280;49567;48.958;8.294;2023-07-20T02:53:03;100214.50;;;21.66;49.79
63439;BME280;49567;48.958;8.294;2023-07-20T02:55:29;100215.97;;;21.63;49.84
63439;BME280;49567;48.958;8.294;2023-07-20T02:57:54;100213.81;;;21.60;49.71
63439;BME280;49567;48.958;8.294;2023-07-20T03:00:20;100208.97;;;21.66;49.76
63439;BME280;49567;48.958;8.294;2023-07-20T03:02:46;100211.09;;;21.69;49.83
63439;BME280;49567;48.958;8.294;2023-07-20T03:05:14;100213.19;;;21.63;49.81
63439;BME280;49567;48.958;8.294;2023-07-20T03:07:40;100213.19;;;21.63;49.86
63439;BME280;49567;48.958;8.294;2023-07-20T03:10:07;100219.69;;;21.59;49.94
63439;BME280;49567;48.958;8.294;2023-07-20T03:12:34;100216.75;;;21.55;50.38
63439;BME280;49567;48.958;8.294;2023-07-20T03:15:00;100222.75;;;21.57;50.26
63439;BME280;49567;48.958;8.294;2023-07-20T03:17:28;100218.22;;;21.53;50.34
63439;BME280;49567;48.958;8.294;2023-07-20T03:19:54;100221.13;;;21.39;50.42
63439;BME280;49567;48.958;8.294;2023-07-20T03:22:19;100222.06;;;21.35;50.62
63439;BME280;49567;48.958;8.294;2023-07-20T03:24:46;100225.66;;;21.35;50.73
63439;BME280;49567;48.958;8.294;2023-07-20T03:27:12;100222.75;;;21.40;50.65
63439;BME280;49567;48.958;8.294;2023-07-20T03:29:37;100227.28;;;21.45;50.83
63439;BME280;49567;48.958;8.294;2023-07-20T03:32:03;100231.69;;;21.63;50.27
63439;BME280;49567;48.958;8.294;2023-07-20T03:34:29;100230.69;;;21.67;50.41
63439;BME280;49567;48.958;8.294;2023-07-20T03:36:54;100228.75;;;21.68;50.26
63439;BME280;49567;48.958;8.294;2023-07-20T03:39:22;100233.78;;;21.66;50.36
63439;BME280;49567;48.958;8.294;2023-07-20T03:41:48;100232.50;;;21.63;50.05
63439;BME280;49567;48.958;8.294;2023-07-20T03:44:14;100230.53;;;21.55;50.39
63439;BME280;49567;48.958;8.294;2023-07-20T03:46:40;100230.38;;;21.52;50.47
63439;BME280;49567;48.958;8.294;2023-07-20T03:49:05;100225.50;;;21.49;50.41
63439;BME280;49567;48.958;8.294;2023-07-20T03:51:34;100232.28;;;21.26;51.04
63439;BME280;49567;48.958;8.294;2023-07-20T03:54:02;100236.81;;;21.21;51.47
63439;BME280;49567;48.958;8.294;2023-07-20T03:56:28;100233.69;;;21.14;51.56
63439;BME280;49567;48.958;8.294;2023-07-20T03:58:56;100233.22;;;21.12;51.45
63439;BME280;49567;48.958;8.294;2023-07-20T04:01:24;100231.91;;;21.10;51.77
63439;BME280;49567;48.958;8.294;2023-07-20T04:03:49;100236.41;;;21.06;51.96
63439;BME280;49567;48.958;8.294;2023-07-20T04:06:15;100239.16;;;21.06;51.97
63439;BME280;49567;48.958;8.294;2023-07-20T04:08:42;100239.47;;;21.04;51.99
63439;BME280;49567;48.958;8.294;2023-07-20T04:11:07;100236.41;;;21.06;51.98
63439;BME280;49567;48.958;8.294;2023-07-20T04:13:32;100239.38;;;21.18;51.82
63439;BME280;49567;48.958;8.294;2023-07-20T04:15:59;100245.88;;;21.22;51.57
63439;BME280;49567;48.958;8.294;2023-07-20T04:18:25;100245.59;;;21.24;52.00
63439;BME280;49567;48.958;8.294;2023-07-20T04:20:50;100244.28;;;21.30;51.73
63439;BME280;49567;48.958;8.294;2023-07-20T04:23:17;100246.06;;;21.34;51.81
63439;BME280;49567;48.958;8.294;2023-07-20T04:25:46;100246.22;;;21.38;51.63
63439;BME280;49567;48.958;8.294;2023-07-20T04:28:12;100239.28;;;21.40;51.50
63439;BME280;49567;48.958;8.294;2023-07-20T04:30:38;100242.84;;;21.41;51.71
63439;BME280;49567;48.958;8.294;2023-07-20T04:33:04;100251.63;;;21.43;51.69
63439;BME280;49567;48.958;8.294;2023-07-20T04:38:14;100254.53;;;21.46;51.79
63439;BME280;49567;48.958;8.294;2023-07-20T04:40:47;100255.66;;;21.45;51.74
63439;BME280;49567;48.958;8.294;2023-07-20T04:43:17;100244.97;;;21.44;51.80
63439;BME280;49567;48.958;8.294;2023-07-20T04:45:44;100250.63;;;21.47;51.78
63439;BME280;49567;48.958;8.294;2023-07-20T04:48:12;100257.47;;;21.50;52.10
63439;BME280;49567;48.958;8.294;2023-07-20T04:50:41;100249.66;;;21.52;52.02
63439;BME280;49567;48.958;8.294;2023-07-20T04:53:09;100251.94;;;21.50;52.15
63439;BME280;49567;48.958;8.294;2023-07-20T04:55:35;100247.41;;;21.45;52.05
63439;BME280;49567;48.958;8.294;2023-07-20T04:58:02;100253.72;;;21.46;52.19
63439;BME280;49567;48.958;8.294;2023-07-20T05:00:29;100251.91;;;21.41;51.86
63439;BME280;49567;48.958;8.294;2023-07-20T05:02:54;100249.00;;;21.38;52.03
63439;BME280;49567;48.958;8.294;2023-07-20T05:05:19;100253.06;;;21.40;52.26
63439;BME280;49567;48.958;8.294;2023-07-20T05:07:45;100254.19;;;21.39;52.12
63439;BME280;49567;48.958;8.294;2023-07-20T05:10:11;100257.25;;;21.38;52.27
63439;BME280;49567;48.958;8.294;2023-07-20T05:12:36;100257.44;;;21.41;52.45
63439;BME280;49567;48.958;8.294;2023-07-20T05:15:02;100255.84;;;21.40;52.70
63439;BME280;49567;48.958;8.294;2023-07-20T05:17:30;100254.50;;;21.20;52.96
63439;BME280;49567;48.958;8.294;2023-07-20T05:19:56;100260.47;;;21.14;53.07
63439;BME280;49567;48.958;8.294;2023-07-20T05:22:21;100256.91;;;21.13;53.12
63439;BME280;49567;48.958;8.294;2023-07-20T05:24:46;100255.91;;;21.18;53.37
63439;BME280;49567;48.958;8.294;2023-07-20T05:27:12;100258.84;;;21.13;53.64
63439;BME280;49567;48.958;8.294;2023-07-20T05:29:37;100256.25;;;21.16;53.61
63439;BME280;49567;48.958;8.294;2023-07-20T05:32:02;100254.78;;;21.19;53.61
63439;BME280;49567;48.958;8.294;2023-07-20T05:34:28;100248.47;;;21.18;53.65
63439;BME280;49567;48.958;8.294;2023-07-20T05:36:54;100255.75;;;21.14;53.85
63439;BME280;49567;48.958;8.294;2023-07-20T05:39:19;100256.19;;;21.08;54.01
63439;BME280;49567;48.958;8.294;2023-07-20T05:41:45;100243.47;;;21.20;53.99
63439;BME280;49567;48.958;8.294;2023-07-20T05:44:10;100251.88;;;21.24;53.86
63439;BME280;49567;48.958;8.294;2023-07-20T05:46:35;100255.09;;;21.17;53.90
63439;BME280;49567;48.958;8.294;2023-07-20T05:49:00;100251.56;;;21.17;53.98
63439;BME280;49567;48.958;8.294;2023-07-20T05:51:27;100252.38;;;21.26;53.32
63439;BME280;49567;48.958;8.294;2023-07-20T05:53:52;100254.50;;;21.29;53.46
63439;BME280;49567;48.958;8.294;2023-07-20T05:56:17;100258.06;;;21.30;53.67
63439;BME280;49567;48.958;8.294;2023-07-20T05:58:43;100263.28;;;21.40;53.76
63439;BME280;49567;48.958;8.294;2023-07-20T06:01:08;100261.47;;;21.35;53.89
63439;BME280;49567;48.958;8.294;2023-07-20T06:03:33;100253.06;;;21.40;53.74
63439;BME280;49567;48.958;8.294;2023-07-20T06:06:03;100256.31;;;21.42;53.61
63439;BME280;49567;48.958;8.294;2023-07-20T06:08:30;100254.84;;;21.36;53.96
63439;BME280;49567;48.958;8.294;2023-07-20T06:10:56;100253.53;;;21.34;54.12
63439;BME280;49567;48.958;8.294;2023-07-20T06:13:21;100253.03;;;21.32;54.10
63439;BME280;49567;48.958;8.294;2023-07-20T06:15:46;100258.72;;;21.27;54.29
63439;BME280;49567;48.958;8.294;2023-07-20T06:18:12;100264.41;;;21.30;54.40
63439;BME280;49567;48.958;8.294;2023-07-20T06:20:38;100271.50;;;21.31;54.50
63439;BME280;49567;48.958;8.294;2023-07-20T06:23:04;100270.56;;;21.36;54.62
63439;BME280;49567;48.958;8.294;2023-07-20T06:25:29;100264.41;;;21.47;54.46
63439;BME280;49567;48.958;8.294;2023-07-20T06:27:55;100265.56;;;21.55;54.15
63439;BME280;49567;48.958;8.294;2023-07-20T06:30:21;100269.97;;;21.56;54.12
63439;BME280;49567;48.958;8.294;2023-07-20T06:32:47;100266.38;;;21.47;54.38
63439;BME280;49567;48.958;8.294;2023-07-20T06:35:13;100267.50;;;21.54;54.38
63439;BME280;49567;48.958;8.294;2023-07-20T06:37:38;100269.66;;;21.74;54.05
63439;BME280;49567;48.958;8.294;2023-07-20T06:40:04;100267.22;;;21.82;53.81
63439;BME280;49567;48.958;8.294;2023-07-20T06:42:30;100270.47;;;21.75;53.86
63439;BME280;49567;48.958;8.294;2023-07-20T06:44:56;100273.56;;;21.82;54.04
63439;BME280;49567;48.958;8.294;2023-07-20T06:47:22;100273.38;;;21.87;54.23
63439;BME280;49567;48.958;8.294;2023-07-20T06:49:47;100271.63;;;22.00;53.69
63439;BME280;49567;48.958;8.294;2023-07-20T06:52:13;100274.72;;;22.07;53.58
63439;BME280;49567;48.958;8.294;2023-07-20T06:54:38;100272.78;;;22.16;53.37
63439;BME280;49567;48.958;8.294;2023-07-20T06:57:04;100268.34;;;22.23;52.96
63439;BME280;49567;48.958;8.294;2023-07-20T06:59:30;100269.34;;;22.19;53.05
63439;BME280;49567;48.958;8.294;2023-07-20T07:01:55;100270.97;;;22.20;52.94
63439;BME280;49567;48.958;8.294;2023-07-20T07:04:21;100269.19;;;22.24;52.79
63439;BME280;49567;48.958;8.294;2023-07-20T07:06:46;100265.78;;;22.18;52.86
63439;BME280;49567;48.958;8.294;2023-07-20T07:09:11;100263.66;;;22.24;52.31
63439;BME280;49567;48.958;8.294;2023-07-20T07:11:37;100264.28;;;22.30;52.42
63439;BME280;49567;48.958;8.294;2023-07-20T07:14:02;100268.69;;;22.39;52.02
63439;BME280;49567;48.958;8.294;2023-07-20T07:16:28;100268.63;;;22.56;52.12
63439;BME280;49567;48.958;8.294;2023-07-20T07:18:53;100274.59;;;22.75;51.66
63439;BME280;49567;48.958;8.294;2023-07-20T07:21:18;100266.28;;;22.84;51.40
63439;BME280;49567;48.958;8.294;2023-07-20T07:23:44;100274.75;;;22.88;50.52
63439;BME280;49567;48.958;8.294;2023-07-20T07:26:10;100271.78;;;22.93;50.24
63439;BME280;49567;48.958;8.294;2023-07-20T07:28:36;100273.88;;;22.96;50.24
63439;BME280;49567;48.958;8.294;2023-07-20T07:31:04;100276.53;;;22.84;50.90
63439;BME280;49567;48.958;8.294;2023-07-20T07:33:30;100272.63;;;22.85;51.19
63439;BME280;49567;48.958;8.294;2023-07-20T07:35:57;100279.09;;;22.89;51.24
63439;BME280;49567;48.958;8.294;2023-07-20T07:38:23;100270.69;;;22.85;51.09
63439;BME280;49567;48.958;8.294;2023-07-20T07:40:48;100265.16;;;22.85;50.56
63439;BME280;49567;48.958;8.294;2023-07-20T07:43:13;100277.34;;;22.84;50.47
63439;BME280;49567;48.958;8.294;2023-07-20T07:45:40;100275.56;;;22.80;51.50
63439;BME280;49567;48.958;8.294;2023-07-20T07:48:06;100272.00;;;22.79;50.30
63439;BME280;49567;48.958;8.294;2023-07-20T07:50:32;100282.41;;;22.73;50.15
63439;BME280;49567;48.958;8.294;2023-07-20T07:52:58;100276.41;;;22.71;50.04
63439;BME280;49567;48.958;8.294;2023-07-20T07:55:24;100282.09;;;22.75;50.11
63439;BME280;49567;48.958;8.294;2023-07-20T07:57:50;100275.56;;;22.80;50.08
63439;BME280;49567;48.958;8.294;2023-07-20T08:00:15;100270.03;;;22.80;49.50
63439;BME280;49567;48.958;8.294;2023-07-20T08:02:44;100270.84;;;22.80;49.76
63439;BME280;49567;48.958;8.294;2023-07-20T08:05:10;100267.13;;;22.85;49.47
63439;BME280;49567;48.958;8.294;2023-07-20T08:07:36;100269.72;;;22.81;49.42
63439;BME280;49567;48.958;8.294;2023-07-20T08:10:02;100263.03;;;22.82;49.52
63439;BME280;49567;48.958;8.294;2023-07-20T08:12:28;100262.53;;;22.89;49.76
63439;BME280;49567;48.958;8.294;2023-07-20T08:14:53;100262.34;;;22.94;49.48
63439;BME280;49567;48.958;8.294;2023-07-20T08:17:19;100269.81;;;22.93;50.13
63439;BME280;49567;48.958;8.294;2023-07-20T08:19:46;100261.97;;;23.04;49.65
63439;BME280;49567;48.958;8.294;2023-07-20T08:22:11;100261.75;;;23.17;49.12
63439;BME280;49567;48.958;8.294;2023-07-20T08:24:40;100268.50;;;23.28;49.28
63439;BME280;49567;48.958;8.294;2023-07-20T08:27:06;100264.28;;;23.31;49.34
63439;BME280;49567;48.958;8.294;2023-07-20T08:29:31;100267.84;;;23.40;49.57
63439;BME280;49567;48.958;8.294;2023-07-20T08:31:56;100263.06;;;23.49;48.47
63439;BME280;49567;48.958;8.294;2023-07-20T08:34:21;100269.81;;;23.60;48.33
63439;BME280;49567;48.958;8.294;2023-07-20T08:36:47;100261.72;;;23.76;47.91
63439;BME280;49567;48.958;8.294;2023-07-20T08:39:13;100270.72;;;23.94;46.99
63439;BME280;49567;48.958;8.294;2023-07-20T08:41:38;100271.06;;;24.13;47.32
63439;BME280;49567;48.958;8.294;2023-07-20T08:44:04;100271.22;;;24.28;46.83
63439;BME280;49567;48.958;8.294;2023-07-20T08:46:31;100280.41;;;24.20;46.35
63439;BME280;49567;48.958;8.294;2023-07-20T08:48:56;100273.25;;;23.99;45.77
63439;BME280;49567;48.958;8.294;2023-07-20T08:51:23;100271.13;;;23.84;46.21
63439;BME280;49567;48.958;8.294;2023-07-20T08:53:50;100267.31;;;23.88;46.19
63439;BME280;49567;48.958;8.294;2023-07-20T08:56:16;100267.25;;;23.97;45.54
63439;BME280;49567;48.958;8.294;2023-07-20T08:58:43;100267.53;;;24.04;45.49
63439;BME280;49567;48.958;8.294;2023-07-20T09:01:10;100265.41;;;24.01;45.06
63439;BME280;49567;48.958;8.294;2023-07-20T09:03:35;100269.09;;;23.93;45.48
63439;BME280;49567;48.958;8.294;2023-07-20T09:06:04;100269.06;;;23.72;45.71
63439;BME280;49567;48.958;8.294;2023-07-20T09:08:30;100258.97;;;23.97;44.69
63439;BME280;49567;48.958;8.294;2023-07-20T09:10:55;100267.19;;;24.26;44.40
63439;BME280;49567;48.958;8.294;2023-07-20T09:13:20;100269.69;;;24.52;43.84
63439;BME280;49567;48.958;8.294;2023-07-20T09:15:46;100267.97;;;24.59;43.47
63439;BME280;49567;48.958;8.294;2023-07-20T09:18:23;100263.97;;;24.69;43.15
63439;BME280;49567;48.958;8.294;2023-07-20T09:20:48;100255.59;;;24.57;42.90
63439;BME280;49567;48.958;8.294;2023-07-20T09:23:14;100256.47;;;24.69;43.06
63439;BME280;49567;48.958;8.294;2023-07-20T09:25:40;100257.44;;;25.10;42.93
63439;BME280;49567;48.958;8.294;2023-07-20T09:28:06;100253.63;;;25.39;42.92
63439;BME280;49567;48.958;8.294;2023-07-20T09:30:31;100254.84;;;25.65;42.04
63439;BME280;49567;48.958;8.294;2023-07-20T09:32:58;100251.59;;;25.75;41.37
63439;BME280;49567;48.958;8.294;2023-07-20T09:35:23;100258.06;;;25.79;41.51
63439;BME280;49567;48.958;8.294;2023-07-20T09:38:00;100259.44;;;25.86;41.21
